Terminal Aerodrome Forecast
Issued by NWS Jackson, KY

Home | Current Version | Previous Version | Text Only | Print | Product List | Glossary On
Versions: 1 2 3 4 5 6 7 8 9 10 11 12 13 14 15
000
FTUS43 KJKL 260500
TAFLOZ
TAF
KLOZ 260532Z 2606/2706 22005KT 5SM -RA OVC030
     FM260700 23005KT 3SM -RA OVC020
     FM261000 28008KT 2SM -RASN OVC008
     FM261300 30009G15KT 3SM -SHSN OVC004
     FM261900 30009G15KT P6SM VCSH OVC012=

USA.gov is the U.S. government's official web portal to all federal, state and local government web resources and services.